Time;durP1;ratioP1;P1;durP2;ratioP2;P2;SDS_P1;SDS_P2;PMS_P1;PMS_P2;Temp;Humidity;BMP_temperature;BMP_pressure;BME280_temperature;BME280_humidity;BME280_pressure;Samples;Min_cycle;Max_cycle;Signal;HPM_P1;HPM_P2
2021/07/26 00:00:17;;;;;;;9.23;5.38;;;;;;;15.69;100.00;100822.28;5210411;28;20026;-66
2021/07/26 00:02:47;;;;;;;9.07;4.78;;;;;;;15.67;100.00;100817.09;5221036;28;20028;-65
2021/07/26 00:05:18;;;;;;;13.23;4.78;;;;;;;15.68;100.00;100817.91;5219181;28;20108;-65
2021/07/26 00:07:48;;;;;;;9.18;4.68;;;;;;;15.67;100.00;100813.56;5210772;28;20025;-65
2021/07/26 00:10:19;;;;;;;9.75;5.18;;;;;;;15.67;100.00;100817.09;5208934;28;20028;-66
2021/07/26 00:12:49;;;;;;;11.85;5.82;;;;;;;15.68;100.00;100810.63;5213812;28;20022;-65
2021/07/26 00:15:20;;;;;;;5.72;3.78;;;;;;;15.66;100.00;100806.44;5215247;28;20044;-65
2021/07/26 00:17:50;;;;;;;10.13;4.93;;;;;;;15.61;100.00;100800.78;5213019;28;20127;-66
2021/07/26 00:20:21;;;;;;;13.30;4.45;;;;;;;15.57;100.00;100807.66;5208638;28;20027;-65
2021/07/26 00:22:51;;;;;;;7.40;4.80;;;;;;;15.53;100.00;100807.19;5211375;28;20396;-65
2021/07/26 00:25:22;;;;;;;7.40;4.88;;;;;;;15.53;100.00;100807.19;5215352;28;20033;-65
2021/07/26 00:27:52;;;;;;;7.63;4.47;;;;;;;15.48;100.00;100812.38;5214906;28;20032;-66
2021/07/26 00:30:23;;;;;;;36.47;4.40;;;;;;;15.41;100.00;100800.66;5208790;28;20029;-65
2021/07/26 00:32:53;;;;;;;6.30;4.07;;;;;;;15.36;100.00;100798.59;5209125;28;20029;-66
2021/07/26 00:35:24;;;;;;;8.95;4.60;;;;;;;15.35;100.00;100804.19;5214484;28;20021;-66
2021/07/26 00:37:54;;;;;;;12.77;5.90;;;;;;;15.33;100.00;100795.44;5215436;28;20037;-66
2021/07/26 00:40:25;;;;;;;12.77;6.93;;;;;;;15.34;100.00;100806.03;5210863;28;20699;-66
2021/07/26 00:42:56;;;;;;;9.77;5.82;;;;;;;15.35;100.00;100806.88;5208931;28;20063;-65
2021/07/26 00:45:26;;;;;;;20.08;6.65;;;;;;;15.33;100.00;100808.97;5212077;28;20434;-65
2021/07/26 00:47:57;;;;;;;19.05;7.90;;;;;;;15.36;100.00;100803.13;5215229;28;20026;-65
2021/07/26 00:50:27;;;;;;;11.13;6.80;;;;;;;15.40;100.00;100802.53;5213014;28;20048;-65
2021/07/26 00:52:58;;;;;;;10.95;5.55;;;;;;;15.44;100.00;100805.69;5208748;28;20474;-65
2021/07/26 00:55:28;;;;;;;7.03;4.43;;;;;;;15.49;100.00;100803.22;5209343;28;20021;-66
2021/07/26 00:57:59;;;;;;;16.05;7.65;;;;;;;15.54;100.00;100804.28;5211724;28;20376;-65
2021/07/26 01:00:29;;;;;;;10.00;6.63;;;;;;;15.61;100.00;100803.47;5208149;28;20084;-65
2021/07/26 01:03:00;;;;;;;13.82;6.70;;;;;;;15.65;100.00;100800.22;5220913;28;20031;-65
2021/07/26 01:05:31;;;;;;;10.95;7.20;;;;;;;15.69;100.00;100797.94;5216253;28;20025;-65
2021/07/26 01:08:03;;;;;;;12.90;7.82;;;;;;;15.71;100.00;100802.13;5202061;28;20028;-66
2021/07/26 01:10:34;;;;;;;21.50;8.07;;;;;;;15.76;100.00;100796.09;5214468;28;20029;-65
2021/07/26 01:13:10;;;;;;;16.38;7.80;;;;;;;15.81;100.00;100799.03;5212467;28;20495;-65
2021/07/26 01:15:41;;;;;;;15.00;7.68;;;;;;;15.82;100.00;100797.19;5208368;28;20120;-65
2021/07/26 01:18:23;;;;;;;14.25;6.60;;;;;;;15.81;100.00;100793.63;5208956;28;20387;-66
2021/07/26 01:20:56;;;;;;;14.45;6.70;;;;;;;15.78;100.00;100784.06;5212553;28;20034;-66
2021/07/26 01:23:29;;;;;;;18.88;7.18;;;;;;;15.75;100.00;100784.44;5214422;28;20033;-66
2021/07/26 01:26:02;;;;;;;15.85;7.18;;;;;;;15.70;100.00;100781.50;5212025;28;20100;-65
2021/07/26 01:28:50;;;;;;;13.65;7.15;;;;;;;15.65;100.00;100783.16;5208815;28;20063;-65
2021/07/26 01:31:21;;;;;;;12.23;7.55;;;;;;;15.62;100.00;100778.97;5207575;28;20025;-65
2021/07/26 01:33:52;;;;;;;16.02;7.90;;;;;;;15.60;100.00;100791.00;5212824;28;20032;-66
2021/07/26 01:36:24;;;;;;;10.65;6.97;;;;;;;15.57;100.00;100800.38;5214273;28;20022;-66
2021/07/26 01:38:54;;;;;;;13.80;7.05;;;;;;;15.53;100.00;100793.69;5211624;28;20029;-66
2021/07/26 01:41:30;;;;;;;15.75;7.70;;;;;;;15.50;100.00;100794.91;5207671;28;20025;-65
2021/07/26 01:44:02;;;;;;;14.57;7.55;;;;;;;15.48;100.00;100796.16;5221866;28;20021;-66
2021/07/26 01:47:00;;;;;;;15.43;7.43;;;;;;;15.43;100.00;100799.44;5208390;28;20025;-65
2021/07/26 01:49:44;;;;;;;11.57;6.47;;;;;;;15.45;100.00;100799.25;5207725;28;20029;-65
2021/07/26 01:52:16;;;;;;;16.52;7.35;;;;;;;15.42;100.00;100791.56;5209022;28;20040;-65
2021/07/26 01:54:48;;;;;;;15.65;7.50;;;;;;;15.43;100.00;100799.44;5214582;28;20033;-65
2021/07/26 01:57:19;;;;;;;16.13;7.93;;;;;;;15.43;100.00;100804.03;5203135;28;20442;-66
2021/07/26 01:59:51;;;;;;;20.17;8.60;;;;;;;15.42;100.00;100802.38;5213368;28;20416;-66
2021/07/26 02:02:23;;;;;;;16.77;8.50;;;;;;;15.40;100.00;100804.41;5216353;28;20033;-66
2021/07/26 02:05:02;;;;;;;16.80;8.52;;;;;;;15.41;100.00;100803.38;5210611;28;20053;-66
2021/07/26 02:07:32;;;;;;;17.02;8.52;;;;;;;15.42;100.00;100811.31;5206847;28;20064;-66
2021/07/26 02:10:11;;;;;;;17.63;8.05;;;;;;;15.44;100.00;100802.97;5207629;28;20104;-65
2021/07/26 02:12:45;;;;;;;17.52;8.18;;;;;;;15.44;100.00;100811.09;5212602;28;20030;-65
2021/07/26 02:15:17;;;;;;;16.10;8.25;;;;;;;15.45;100.00;100810.06;5214194;28;20044;-65
2021/07/26 02:17:48;;;;;;;16.63;7.78;;;;;;;15.41;100.00;100809.63;5211266;28;20394;-65
2021/07/26 02:20:18;;;;;;;18.48;7.95;;;;;;;15.37;100.00;100810.22;5206914;28;20111;-65
2021/07/26 02:22:49;;;;;;;17.50;7.80;;;;;;;15.36;100.00;100805.84;5210062;28;20035;-65
2021/07/26 02:25:20;;;;;;;24.98;7.85;;;;;;;15.34;100.00;100810.63;5217144;28;20340;-66
2021/07/26 02:27:50;;;;;;;18.00;8.30;;;;;;;15.29;100.00;100812.03;5217759;28;20033;-65
2021/07/26 02:30:21;;;;;;;19.60;8.20;;;;;;;15.30;100.00;100823.69;5211102;28;20021;-65
2021/07/26 02:32:51;;;;;;;18.15;7.43;;;;;;;15.28;100.00;100814.94;5211365;28;20071;-65
2021/07/26 02:35:22;;;;;;;16.70;7.95;;;;;;;15.25;100.00;100818.88;5217324;28;20033;-65
2021/07/26 02:37:52;;;;;;;15.00;6.68;;;;;;;15.22;100.00;100834.66;5217550;28;20025;-65
2021/07/26 02:40:24;;;;;;;14.38;8.00;;;;;;;15.22;100.00;100834.66;5212870;28;20040;-65
2021/07/26 02:42:56;;;;;;;14.60;7.88;;;;;;;15.17;100.00;100834.41;5207698;28;20017;-66
2021/07/26 02:45:27;;;;;;;20.63;8.50;;;;;;;15.19;100.00;100837.75;5214865;28;20035;-65
2021/07/26 02:47:57;;;;;;;17.45;6.45;;;;;;;15.18;100.00;100847.72;5211319;28;20020;-65
2021/07/26 02:50:28;;;;;;;13.60;7.38;;;;;;;15.18;100.00;100839.63;5212260;28;20040;-65
2021/07/26 02:53:00;;;;;;;16.88;7.45;;;;;;;15.11;100.00;100838.75;5217630;28;20064;-65
2021/07/26 02:55:31;;;;;;;14.82;7.35;;;;;;;15.07;100.00;100844.72;5216920;28;20029;-65
2021/07/26 02:58:01;;;;;;;12.85;7.05;;;;;;;15.01;100.00;100838.25;5210760;28;20118;-65
2021/07/26 03:00:32;;;;;;;13.80;7.45;;;;;;;14.96;100.00;100837.97;5207930;28;20029;-65
2021/07/26 03:03:02;;;;;;;15.63;7.13;;;;;;;14.92;100.00;100836.72;5209326;28;20555;-66
2021/07/26 03:05:33;;;;;;;17.30;7.75;;;;;;;14.95;100.00;100839.84;5218061;28;20028;-65
2021/07/26 03:08:04;;;;;;;19.38;8.73;;;;;;;14.96;100.00;100844.25;5213981;28;20029;-65
2021/07/26 03:10:34;;;;;;;16.98;8.13;;;;;;;14.96;100.00;100843.38;5210077;28;20059;-65
2021/07/26 03:13:05;;;;;;;17.85;8.43;;;;;;;14.96;100.00;100840.66;5212791;28;20388;-65
2021/07/26 03:15:37;;;;;;;17.08;8.48;;;;;;;14.93;100.00;100843.78;5217261;28;20056;-65
2021/07/26 03:18:07;;;;;;;20.08;8.15;;;;;;;14.90;100.00;100844.16;5216914;28;20390;-66
2021/07/26 03:20:38;;;;;;;23.60;8.70;;;;;;;14.93;100.00;100843.78;5209436;28;20040;-66
2021/07/26 03:23:09;;;;;;;18.95;8.95;;;;;;;14.90;100.00;100846.84;5210420;28;20029;-65
2021/07/26 03:25:41;;;;;;;20.45;8.82;;;;;;;14.87;100.00;100847.28;5215933;28;20104;-65
2021/07/26 03:28:12;;;;;;;15.25;8.10;;;;;;;14.85;100.00;100842.03;5216588;28;20541;-65
2021/07/26 03:30:42;;;;;;;17.83;8.98;;;;;;;14.84;100.00;100844.94;5213021;28;20053;-65
2021/07/26 03:33:13;;;;;;;22.30;9.00;;;;;;;14.81;100.00;100851.59;5210281;28;20475;-65
2021/07/26 03:35:43;;;;;;;19.95;8.43;;;;;;;14.80;100.00;100851.75;5211828;28;20029;-65
2021/07/26 03:38:14;;;;;;;18.02;8.73;;;;;;;14.74;100.00;100865.00;5216417;28;20097;-65
2021/07/26 03:40:47;;;;;;;20.40;8.95;;;;;;;14.72;100.00;100866.25;5215034;28;20029;-64
2021/07/26 03:43:18;;;;;;;17.05;7.78;;;;;;;14.74;100.00;100859.59;5210118;28;20025;-65
2021/07/26 03:45:49;;;;;;;16.63;8.32;;;;;;;14.80;100.00;100862.56;5210281;28;20464;-65
2021/07/26 03:48:19;;;;;;;18.10;9.05;;;;;;;14.79;100.00;100863.59;5215819;28;20100;-65
2021/07/26 03:50:50;;;;;;;27.38;9.75;;;;;;;14.76;100.00;100867.53;5215703;28;20040;-65
2021/07/26 03:53:20;;;;;;;17.17;8.57;;;;;;;14.75;100.00;100873.94;5211722;28;20100;-65
2021/07/26 03:55:51;;;;;;;24.58;10.07;;;;;;;14.74;100.00;100872.28;5209965;28;20029;-65
2021/07/26 03:58:21;;;;;;;20.42;9.93;;;;;;;14.81;100.00;100875.03;5212802;28;20095;-65
2021/07/26 04:00:52;;;;;;;19.85;9.88;;;;;;;14.83;100.00;100870.28;5209213;28;20115;-65
2021/07/26 04:03:28;;;;;;;24.30;10.40;;;;;;;14.87;100.00;100876.97;5222277;28;20067;-65
2021/07/26 04:06:10;;;;;;;24.77;10.00;;;;;;;14.87;100.00;100879.69;5213622;28;20030;-65
2021/07/26 04:08:43;;;;;;;23.67;9.77;;;;;;;14.91;100.00;100880.94;5215463;28;20036;-65
2021/07/26 04:13:54;;;;;;;27.17;10.13;;;;;;;15.01;100.00;100889.59;5209529;28;20468;-65
2021/07/26 04:16:24;;;;;;;25.60;10.80;;;;;;;15.08;100.00;100885.06;5210850;28;20025;-65
2021/07/26 04:18:56;;;;;;;21.95;11.52;;;;;;;15.20;100.00;100888.88;5215511;28;20018;-65
2021/07/26 04:21:31;;;;;;;25.90;11.00;;;;;;;15.24;100.00;100895.56;5215512;28;20110;-65
2021/07/26 04:24:03;;;;;;;25.58;11.27;;;;;;;15.32;100.00;100893.78;5210990;28;20104;-65
2021/07/26 04:26:33;;;;;;;22.23;12.00;;;;;;;15.37;100.00;100894.03;5207100;28;20056;-65
2021/07/26 04:29:04;;;;;;;29.35;12.27;;;;;;;15.43;100.00;100895.94;5211232;28;20094;-65
2021/07/26 04:31:34;;;;;;;30.40;12.75;;;;;;;15.49;100.00;100900.56;5209119;28;20021;-65
2021/07/26 04:34:05;;;;;;;25.48;11.73;;;;;;;15.52;100.00;100892.88;5211422;28;20163;-65
2021/07/26 04:36:35;;;;;;;25.67;12.30;;;;;;;15.57;100.00;100889.59;5215229;28;20112;-65
2021/07/26 04:39:06;;;;;;;31.25;11.55;;;;;;;15.60;100.00;100881.06;5214005;28;20052;-65
2021/07/26 04:41:36;;;;;;;26.25;12.32;;;;;;;15.61;100.00;100876.50;5209406;28;20082;-65
2021/07/26 04:44:07;;;;;;;22.50;11.05;;;;;;;15.62;100.00;100876.31;5190840;28;20180;-65
2021/07/26 04:46:37;;;;;;;27.20;11.75;;;;;;;15.63;100.00;100879.84;5214919;28;20026;-65
2021/07/26 04:49:08;;;;;;;21.45;11.57;;;;;;;15.68;100.00;100878.25;5214789;28;20032;-65
2021/07/26 04:51:38;;;;;;;22.30;11.32;;;;;;;15.79;100.00;100872.28;5210879;28;20474;-65
2021/07/26 04:54:09;;;;;;;28.85;11.73;;;;;;;15.84;100.00;100884.38;5208618;28;20025;-65
2021/07/26 04:56:39;;;;;;;18.77;11.15;;;;;;;15.85;100.00;100884.16;5211616;28;20495;-65
2021/07/26 04:59:10;;;;;;;24.85;10.95;;;;;;;15.90;100.00;100888.97;5214612;28;20494;-65
2021/07/26 05:01:40;;;;;;;21.50;9.57;;;;;;;15.94;100.00;100890.25;5213415;28;20500;-65
2021/07/26 05:04:11;;;;;;;21.48;11.25;;;;;;;16.04;100.00;100896.97;5220219;28;20041;-65
2021/07/26 05:06:42;;;;;;;21.92;10.40;;;;;;;16.15;100.00;100900.13;5206738;28;20392;-65
2021/07/26 05:09:13;;;;;;;17.70;9.70;;;;;;;16.22;100.00;100898.31;5214206;28;20160;-65
2021/07/26 05:11:44;;;;;;;21.17;10.57;;;;;;;16.22;100.00;100901.00;5215162;28;20109;-65
2021/07/26 05:14:14;;;;;;;18.38;9.57;;;;;;;16.36;100.00;100891.03;5208829;28;20116;-65
2021/07/26 05:16:45;;;;;;;26.27;9.75;;;;;;;16.38;100.00;100897.09;5208706;28;20057;-65
2021/07/26 05:19:16;;;;;;;25.00;10.75;;;;;;;16.40;100.00;100898.56;5212158;28;20104;-65
2021/07/26 05:21:46;;;;;;;21.05;10.18;;;;;;;16.47;100.00;100902.16;5217579;28;20277;-65
2021/07/26 05:24:17;;;;;;;24.05;10.30;;;;;;;16.49;100.00;100902.75;5211753;28;20105;-65
2021/07/26 05:26:56;;;;;;;21.38;9.88;;;;;;;16.52;100.00;100904.25;5214858;28;20171;-65
2021/07/26 05:29:28;;;;;;;22.15;10.07;;;;;;;16.57;100.00;100907.16;5213258;28;20032;-65
2021/07/26 05:31:59;;;;;;;20.10;9.48;;;;;;;16.60;100.00;100914.88;5207976;28;20032;-65
2021/07/26 05:34:29;;;;;;;17.42;9.13;;;;;;;16.62;100.00;100910.09;5208366;28;20025;-65
2021/07/26 05:37:00;;;;;;;20.10;9.25;;;;;;;16.66;100.00;100915.94;5213589;28;20037;-66
2021/07/26 05:39:31;;;;;;;13.55;8.43;;;;;;;16.70;100.00;100917.19;5213766;28;20021;-65
2021/07/26 05:42:01;;;;;;;15.40;8.50;;;;;;;16.74;100.00;100919.31;5210772;28;20032;-65
2021/07/26 05:44:32;;;;;;;16.70;8.82;;;;;;;16.81;100.00;100922.88;5204193;28;20061;-66
2021/07/26 05:47:02;;;;;;;17.00;8.52;;;;;;;16.86;100.00;100918.72;5212486;28;20111;-65
2021/07/26 05:49:34;;;;;;;17.85;9.90;;;;;;;16.90;100.00;100914.56;5207740;28;20107;-65
2021/07/26 05:52:04;;;;;;;17.20;9.40;;;;;;;16.94;100.00;100921.25;5209103;28;20072;-65
2021/07/26 05:54:35;;;;;;;18.98;8.77;;;;;;;17.11;100.00;100908.94;5214290;28;20022;-65
2021/07/26 05:57:11;;;;;;;20.42;7.82;;;;;;;17.97;100.00;100902.59;5204040;28;20034;-66
2021/07/26 05:59:43;;;;;;;18.55;6.32;;;;;;;19.38;100.00;100906.00;5215177;28;20030;-66
2021/07/26 06:02:14;;;;;;;9.43;5.45;;;;;;;20.47;100.00;100902.75;5219528;28;20029;-66
2021/07/26 06:04:44;;;;;;;9.38;5.45;;;;;;;21.30;100.00;100894.59;5225235;28;20039;-66
2021/07/26 06:07:17;;;;;;;11.55;5.38;;;;;;;21.95;100.00;100897.19;5218481;28;20399;-66
2021/07/26 06:09:47;;;;;;;8.55;4.68;;;;;;;22.68;100.00;100898.38;5204321;28;20033;-66
2021/07/26 06:12:18;;;;;;;10.40;4.45;;;;;;;23.13;100.00;100889.38;5218253;28;20029;-67
2021/07/26 06:14:49;;;;;;;9.52;4.70;;;;;;;22.85;100.00;100883.94;5217001;28;20433;-66
2021/07/26 06:17:19;;;;;;;10.68;4.35;;;;;;;22.58;100.00;100891.91;5212046;28;20025;-66
2021/07/26 06:19:50;;;;;;;12.65;4.25;;;;;;;23.05;100.00;100887.06;5210499;28;20071;-67
2021/07/26 06:22:20;;;;;;;7.38;4.10;;;;;;;22.90;100.00;100887.63;5218081;28;20408;-66
2021/07/26 06:24:50;;;;;;;10.90;3.97;;;;;;;22.04;100.00;100885.88;5217818;28;20054;-66
2021/07/26 06:27:21;;;;;;;6.75;3.65;;;;;;;22.07;100.00;100885.41;5213348;28;20021;-66
2021/07/26 06:29:53;;;;;;;8.75;3.78;;;;;;;21.90;100.00;100891.63;5210844;28;20400;-66
2021/07/26 06:32:23;;;;;;;11.75;3.90;;;;;;;21.27;100.00;100886.84;5224711;28;20052;-65
2021/07/26 06:34:53;;;;;;;8.10;4.03;;;;;;;20.78;100.00;100886.16;5211403;28;20812;-66
2021/07/26 06:37:25;;;;;;;10.88;3.30;;;;;;;20.46;100.00;100888.28;5213970;28;20017;-66
2021/07/26 06:39:55;;;;;;;5.65;2.92;;;;;;;19.93;100.00;100891.69;5217189;28;20074;-66
2021/07/26 06:42:26;;;;;;;9.35;3.40;;;;;;;20.05;100.00;100891.75;5217003;28;20021;-66
2021/07/26 06:44:56;;;;;;;10.25;3.83;;;;;;;19.74;100.00;100892.72;5217480;28;20510;-66
2021/07/26 06:47:27;;;;;;;7.95;3.88;;;;;;;19.76;100.00;100901.47;5217587;28;20487;-66
2021/07/26 06:49:57;;;;;;;7.57;3.85;;;;;;;19.85;100.00;100895.50;5212130;28;20104;-66
2021/07/26 06:52:28;;;;;;;12.93;4.25;;;;;;;19.71;100.00;100896.72;5210986;28;20053;-66
2021/07/26 06:54:58;;;;;;;11.82;3.85;;;;;;;19.69;100.00;100898.84;5214831;28;20026;-66
2021/07/26 06:57:29;;;;;;;11.75;3.97;;;;;;;20.09;100.00;100901.13;5211527;28;20028;-66
2021/07/26 06:59:59;;;;;;;9.05;3.60;;;;;;;19.91;100.00;100899.22;5212791;28;20483;-65
2021/07/26 07:02:30;;;;;;;7.05;3.45;;;;;;;19.72;100.00;100898.38;5220383;28;20103;-65
2021/07/26 07:05:01;;;;;;;9.07;3.40;;;;;;;19.62;100.00;100900.78;5222838;28;20090;-65
2021/07/26 07:07:32;;;;;;;8.48;3.42;;;;;;;19.40;100.00;100901.16;5209108;28;20025;-65
2021/07/26 07:10:02;;;;;;;8.43;3.70;;;;;;;19.29;100.00;100891.00;5209697;28;20033;-65
2021/07/26 07:12:33;;;;;;;8.13;3.85;;;;;;;19.05;100.00;100894.56;5216396;28;20029;-65
2021/07/26 07:15:04;;;;;;;6.45;4.10;;;;;;;18.77;100.00;100893.06;5216938;28;20072;-65
2021/07/26 07:17:34;;;;;;;7.13;4.15;;;;;;;18.78;100.00;100893.94;5211911;28;20049;-65
2021/07/26 07:20:06;;;;;;;7.53;3.95;;;;;;;18.91;100.00;100899.25;5209521;28;20049;-65
2021/07/26 07:22:36;;;;;;;9.85;4.15;;;;;;;18.70;100.00;100903.16;5214616;28;20116;-65
2021/07/26 07:25:07;;;;;;;9.45;3.90;;;;;;;18.75;100.00;100907.94;5216790;28;20108;-65
2021/07/26 07:27:38;;;;;;;13.15;5.18;;;;;;;18.63;100.00;100902.34;5214128;28;20054;-65
2021/07/26 07:30:08;;;;;;;11.57;4.75;;;;;;;18.54;100.00;100903.66;5209791;28;20100;-65
2021/07/26 07:32:39;;;;;;;8.98;5.35;;;;;;;18.48;100.00;100896.38;5211366;28;20036;-65
2021/07/26 07:35:10;;;;;;;11.48;5.72;;;;;;;18.48;100.00;100893.66;5216411;28;20021;-65
2021/07/26 07:37:41;;;;;;;14.93;5.60;;;;;;;18.50;100.00;100907.84;5216637;28;20029;-65
2021/07/26 07:40:12;;;;;;;9.63;5.82;;;;;;;18.56;100.00;100898.81;5215885;28;20112;-65
2021/07/26 07:42:43;;;;;;;12.05;6.82;;;;;;;18.62;100.00;100908.81;5216187;28;20108;-65
2021/07/26 07:45:13;;;;;;;14.05;7.35;;;;;;;18.68;100.00;100910.69;5211128;28;20067;-65
2021/07/26 07:47:44;;;;;;;14.55;7.93;;;;;;;18.69;100.00;100908.81;5192714;28;20435;-65
2021/07/26 07:50:15;;;;;;;15.23;7.85;;;;;;;18.86;100.00;100913.50;5213589;28;20044;-65
2021/07/26 07:52:46;;;;;;;15.00;8.38;;;;;;;19.11;100.00;100920.84;5215926;28;20029;-65
2021/07/26 07:55:17;;;;;;;13.85;7.70;;;;;;;19.32;100.00;100915.03;5214019;28;20037;-65
2021/07/26 07:57:51;;;;;;;15.68;7.68;;;;;;;19.44;100.00;100920.59;5209500;28;20111;-65
2021/07/26 08:00:22;;;;;;;16.58;8.23;;;;;;;19.63;100.00;100926.94;5210177;28;20453;-65
2021/07/26 08:02:52;;;;;;;17.67;8.25;;;;;;;19.65;100.00;100930.28;5222603;28;20099;-65
2021/07/26 08:05:23;;;;;;;20.30;8.82;;;;;;;19.54;100.00;100922.81;5218545;28;20384;-65
2021/07/26 08:07:54;;;;;;;19.23;9.85;;;;;;;19.41;100.00;100924.59;5211501;28;20513;-65
2021/07/26 08:10:24;;;;;;;18.05;8.90;;;;;;;19.41;100.00;100940.06;5208686;28;20035;-65
2021/07/26 08:12:55;;;;;;;18.35;8.80;;;;;;;19.03;100.00;100934.75;5213337;28;20483;-65
2021/07/26 08:15:25;;;;;;;18.92;9.23;;;;;;;19.22;100.00;100941.06;5215853;28;20029;-65
2021/07/26 08:17:56;;;;;;;14.18;8.55;;;;;;;19.28;100.00;100942.94;5213085;28;20454;-65
2021/07/26 08:20:26;;;;;;;20.42;9.75;;;;;;;19.19;100.00;100938.81;5208838;28;20025;-65
2021/07/26 08:22:57;;;;;;;18.70;8.90;;;;;;;18.97;100.00;100949.19;5210199;28;20484;-65
2021/07/26 08:25:29;;;;;;;19.42;9.07;;;;;;;18.96;100.00;100956.50;5202528;28;20087;-65
2021/07/26 08:28:00;;;;;;;14.80;8.70;;;;;;;19.05;100.00;100948.94;5215614;28;20052;-65
2021/07/26 08:30:33;;;;;;;21.55;9.38;;;;;;;19.17;100.00;100954.50;5208540;28;20048;-65
2021/07/26 08:33:04;;;;;;;22.60;9.80;;;;;;;19.31;100.00;100954.16;5208862;28;20029;-65
2021/07/26 08:35:36;;;;;;;21.10;9.80;;;;;;;19.61;100.00;100958.97;5214277;28;20452;-65
2021/07/26 08:38:06;;;;;;;19.98;11.48;;;;;;;20.00;100.00;100954.22;5215527;28;20479;-65
2021/07/26 08:40:37;;;;;;;26.77;9.20;;;;;;;20.22;100.00;100949.13;5211259;28;20075;-65
2021/07/26 08:43:08;;;;;;;15.75;8.90;;;;;;;20.43;100.00;100957.69;5208765;28;20399;-65
2021/07/26 08:45:39;;;;;;;24.05;9.07;;;;;;;20.58;100.00;100953.75;5211139;28;20104;-65
2021/07/26 08:48:14;;;;;;;16.13;8.75;;;;;;;20.58;100.00;100968.25;5215199;28;20420;-65
2021/07/26 08:50:49;;;;;;;18.85;9.00;;;;;;;20.66;100.00;100959.72;5214532;28;20024;-65
2021/07/26 08:53:20;;;;;;;23.63;11.38;;;;;;;20.48;100.00;100959.75;5214788;28;20025;-65
2021/07/26 08:55:51;;;;;;;18.33;9.40;;;;;;;20.78;100.00;100964.38;5215123;28;20703;-65
2021/07/26 08:58:22;;;;;;;21.67;9.27;;;;;;;21.08;100.00;100967.09;5183903;28;20108;-65
2021/07/26 09:00:55;;;;;;;18.63;8.75;;;;;;;21.24;100.00;100966.47;5214606;28;20025;-65
2021/07/26 09:03:25;;;;;;;20.55;9.00;;;;;;;21.07;100.00;100970.91;5212369;28;20028;-64
2021/07/26 09:05:55;;;;;;;16.35;9.35;;;;;;;21.00;100.00;100968.28;5212988;28;20029;-64
2021/07/26 09:08:33;;;;;;;19.23;9.73;;;;;;;20.69;100.00;100963.91;5214518;28;20071;-65
2021/07/26 09:11:04;;;;;;;18.25;10.52;;;;;;;20.52;100.00;100976.47;5209345;28;20260;-65
2021/07/26 09:13:38;;;;;;;17.88;10.13;;;;;;;20.62;100.00;100979.50;5208735;28;20365;-65
2021/07/26 09:16:20;;;;;;;17.55;9.65;;;;;;;20.68;100.00;100976.69;5212492;28;20079;-65
2021/07/26 09:19:06;;;;;;;21.40;10.43;;;;;;;20.74;100.00;100974.94;5214552;28;20116;-64
2021/07/26 09:21:55;;;;;;;22.02;10.85;;;;;;;21.06;100.00;100966.53;5214445;28;20092;-65
2021/07/26 09:24:27;;;;;;;17.17;9.43;;;;;;;21.39;100.00;100969.59;5212282;28;20028;-65
2021/07/26 09:27:13;;;;;;;19.08;9.18;;;;;;;21.57;100.00;100973.28;5208559;28;20024;-65
2021/07/26 09:29:44;;;;;;;18.63;8.82;;;;;;;21.83;100.00;100975.56;5207906;28;20033;-65
2021/07/26 09:32:14;;;;;;;17.77;8.95;;;;;;;22.06;100.00;100973.91;5213413;28;20022;-64
2021/07/26 09:34:46;;;;;;;20.30;8.93;;;;;;;22.10;100.00;100966.88;5216609;28;20025;-64
2021/07/26 09:37:17;;;;;;;17.52;8.85;;;;;;;22.41;100.00;100974.69;5215394;28;20028;-64
2021/07/26 09:39:48;;;;;;;21.95;8.73;;;;;;;22.93;100.00;100977.38;5211495;28;20032;-64
2021/07/26 09:42:27;;;;;;;14.50;8.07;;;;;;;22.98;100.00;100969.28;5214900;28;20030;-64
2021/07/26 09:45:18;;;;;;;17.77;8.90;;;;;;;22.97;100.00;100973.09;5200876;28;20037;-64
2021/07/26 09:48:06;;;;;;;16.42;8.23;;;;;;;22.90;100.00;100974.31;5218648;28;20438;-64
2021/07/26 09:50:38;;;;;;;17.88;9.25;;;;;;;22.68;100.00;100979.59;5217970;28;20033;-64
2021/07/26 09:53:21;;;;;;;23.35;9.30;;;;;;;22.38;100.00;100975.16;5218275;28;20033;-64
2021/07/26 09:55:53;;;;;;;13.30;7.88;;;;;;;22.53;100.00;100974.66;5218639;28;20110;-64
2021/07/26 09:58:35;;;;;;;15.48;8.32;;;;;;;22.53;100.00;100971.09;5215870;28;20044;-64
2021/07/26 10:01:07;;;;;;;14.57;8.13;;;;;;;22.49;100.00;100963.38;5211521;28;20074;-64
2021/07/26 10:03:39;;;;;;;14.73;7.85;;;;;;;22.59;100.00;100970.13;5225267;28;20025;-64
2021/07/26 10:06:10;;;;;;;15.50;7.82;;;;;;;22.73;100.00;100980.53;5214607;28;20112;-64
2021/07/26 10:08:41;;;;;;;9.55;7.07;;;;;;;23.02;100.00;100968.78;5217995;28;20104;-64
2021/07/26 10:11:14;;;;;;;12.30;6.78;;;;;;;23.08;100.00;100968.63;5213411;28;20112;-64
2021/07/26 10:13:47;;;;;;;11.98;6.45;;;;;;;23.12;100.00;100980.75;5211811;28;20025;-64
2021/07/26 10:16:19;;;;;;;14.63;6.65;;;;;;;23.40;100.00;100979.06;5214764;28;20438;-64
2021/07/26 10:18:50;;;;;;;12.70;5.40;;;;;;;23.56;100.00;100980.13;5217950;28;20032;-63
2021/07/26 10:21:26;;;;;;;13.60;6.28;;;;;;;23.44;100.00;100989.22;5216628;28;20025;-63
2021/07/26 10:24:01;;;;;;;11.40;6.43;;;;;;;23.58;100.00;100986.19;5217792;28;20535;-64
2021/07/26 10:26:36;;;;;;;8.77;6.30;;;;;;;23.78;100.00;100994.75;5217893;28;20029;-64
2021/07/26 10:29:07;;;;;;;19.52;6.93;;;;;;;23.58;100.00;100994.38;5213877;28;20490;-63
2021/07/26 10:31:39;;;;;;;16.48;6.35;;;;;;;23.62;100.00;100990.09;5211746;28;20017;-63
2021/07/26 10:34:15;;;;;;;11.65;5.40;;;;;;;23.58;100.00;100992.47;5213593;28;20100;-63
2021/07/26 10:36:47;;;;;;;7.45;5.32;;;;;;;23.46;100.00;100984.34;5217768;28;20040;-63
2021/07/26 10:39:19;;;;;;;9.40;5.43;;;;;;;23.69;100.00;100990.75;5217141;28;20031;-64
2021/07/26 10:41:50;;;;;;;10.68;5.95;;;;;;;24.03;100.00;100989.63;5218023;28;20387;-64
2021/07/26 10:44:20;;;;;;;8.90;5.20;;;;;;;24.10;100.00;100992.22;5216710;28;20064;-63
2021/07/26 10:46:51;;;;;;;8.48;5.32;;;;;;;24.35;100.00;100997.22;5212705;28;20123;-63
2021/07/26 10:49:34;;;;;;;16.17;5.70;;;;;;;24.55;100.00;100993.94;5210666;28;20496;-64
2021/07/26 10:52:05;;;;;;;7.10;4.63;;;;;;;24.14;100.00;100996.09;5213876;28;20022;-64
2021/07/26 10:54:36;;;;;;;10.35;5.15;;;;;;;23.41;100.00;100995.22;5217348;28;20029;-64
2021/07/26 10:57:09;;;;;;;13.45;5.82;;;;;;;23.62;100.00;100982.69;5205810;28;20060;-64
2021/07/26 11:00:08;;;;;;;9.50;4.95;;;;;;;24.18;100.00;100996.44;5216353;28;20040;-64
2021/07/26 11:02:41;;;;;;;11.85;5.00;;;;;;;24.69;100.00;100997.09;5222082;28;20119;-64
2021/07/26 11:05:24;;;;;;;7.65;4.95;;;;;;;24.75;100.00;101001.56;5221031;28;20401;-64
2021/07/26 11:08:13;;;;;;;8.70;4.68;;;;;;;24.92;100.00;100996.84;5212943;28;20052;-64
2021/07/26 11:10:48;;;;;;;9.52;4.40;;;;;;;24.92;100.00;100996.84;5210793;28;20108;-64
2021/07/26 11:13:18;;;;;;;9.65;4.88;;;;;;;24.81;100.00;100992.31;5211058;28;20053;-64
2021/07/26 11:15:50;;;;;;;8.98;4.97;;;;;;;24.46;100.00;100993.56;5198976;28;20445;-64
2021/07/26 11:18:24;;;;;;;7.07;4.80;;;;;;;24.37;100.00;100994.25;5216861;28;20025;-64
2021/07/26 11:21:04;;;;;;;8.13;4.87;;;;;;;24.28;100.00;100985.59;5212061;28;20027;-64
2021/07/26 11:23:39;;;;;;;9.15;4.97;;;;;;;24.03;100.00;100984.16;5210585;28;20108;-63
2021/07/26 11:26:18;;;;;;;7.95;5.10;;;;;;;24.17;100.00;100992.03;5211987;28;20040;-63
2021/07/26 11:28:51;;;;;;;8.90;4.47;;;;;;;24.07;100.00;100989.97;5223745;28;20039;-64
2021/07/26 11:31:24;;;;;;;8.13;5.18;;;;;;;24.51;100.00;100987.31;5210038;28;20017;-64
2021/07/26 11:34:14;;;;;;;10.95;4.90;;;;;;;25.19;100.00;100979.56;5197008;28;20029;-64